sensor_id;sensor_type;location;lat;lon;timestamp;P1;durP1;ratioP1;P2;durP2;ratioP2
59998;SDS011;45859;51.378;6.736;2022-12-07T00:01:41;22.03;;;10.67;;
59998;SDS011;45859;51.378;6.736;2022-12-07T00:04:09;22.07;;;10.47;;
59998;SDS011;45859;51.378;6.736;2022-12-07T00:06:38;18.27;;;10.07;;
59998;SDS011;45859;51.378;6.736;2022-12-07T00:09:13;21.50;;;11.27;;
59998;SDS011;45859;51.378;6.736;2022-12-07T00:11:41;17.43;;;10.73;;
59998;SDS011;45859;51.378;6.736;2022-12-07T00:14:07;25.00;;;11.47;;
59998;SDS011;45859;51.378;6.736;2022-12-07T00:16:36;15.82;;;7.85;;
59998;SDS011;45859;51.378;6.736;2022-12-07T00:19:03;18.93;;;10.63;;
59998;SDS011;45859;51.378;6.736;2022-12-07T00:21:30;23.67;;;11.53;;
59998;SDS011;45859;51.378;6.736;2022-12-07T00:23:57;16.23;;;8.90;;
59998;SDS011;45859;51.378;6.736;2022-12-07T00:26:24;18.93;;;11.20;;
59998;SDS011;45859;51.378;6.736;2022-12-07T00:28:56;16.63;;;8.20;;
59998;SDS011;45859;51.378;6.736;2022-12-07T00:31:24;21.53;;;10.47;;
59998;SDS011;45859;51.378;6.736;2022-12-07T00:33:55;18.27;;;9.17;;
59998;SDS011;45859;51.378;6.736;2022-12-07T00:36:22;19.83;;;9.53;;
59998;SDS011;45859;51.378;6.736;2022-12-07T00:38:49;17.90;;;8.93;;
59998;SDS011;45859;51.378;6.736;2022-12-07T00:41:16;15.93;;;7.77;;
59998;SDS011;45859;51.378;6.736;2022-12-07T00:43:47;18.87;;;11.40;;
59998;SDS011;45859;51.378;6.736;2022-12-07T00:46:14;14.87;;;8.77;;
59998;SDS011;45859;51.378;6.736;2022-12-07T00:48:41;14.17;;;7.33;;
59998;SDS011;45859;51.378;6.736;2022-12-07T00:51:07;16.43;;;10.40;;
59998;SDS011;45859;51.378;6.736;2022-12-07T00:53:34;15.67;;;8.70;;
59998;SDS011;45859;51.378;6.736;2022-12-07T00:56:14;19.73;;;10.77;;
59998;SDS011;45859;51.378;6.736;2022-12-07T00:58:42;19.57;;;10.73;;
59998;SDS011;45859;51.378;6.736;2022-12-07T01:01:09;19.43;;;11.17;;
59998;SDS011;45859;51.378;6.736;2022-12-07T01:03:35;19.63;;;8.73;;
59998;SDS011;45859;51.378;6.736;2022-12-07T01:06:02;14.00;;;7.43;;
59998;SDS011;45859;51.378;6.736;2022-12-07T01:08:28;20.90;;;11.63;;
59998;SDS011;45859;51.378;6.736;2022-12-07T01:11:04;21.50;;;9.33;;
59998;SDS011;45859;51.378;6.736;2022-12-07T01:13:32;21.10;;;11.37;;
59998;SDS011;45859;51.378;6.736;2022-12-07T01:16:00;22.43;;;11.60;;
59998;SDS011;45859;51.378;6.736;2022-12-07T01:18:28;21.70;;;11.33;;
59998;SDS011;45859;51.378;6.736;2022-12-07T01:20:59;24.37;;;10.90;;
59998;SDS011;45859;51.378;6.736;2022-12-07T01:23:24;13.73;;;7.67;;
59998;SDS011;45859;51.378;6.736;2022-12-07T01:25:54;15.73;;;8.90;;
59998;SDS011;45859;51.378;6.736;2022-12-07T01:28:23;24.47;;;12.07;;
59998;SDS011;45859;51.378;6.736;2022-12-07T01:31:00;20.70;;;9.53;;
59998;SDS011;45859;51.378;6.736;2022-12-07T01:33:28;17.20;;;10.20;;
59998;SDS011;45859;51.378;6.736;2022-12-07T01:36:06;22.53;;;10.90;;
59998;SDS011;45859;51.378;6.736;2022-12-07T01:38:43;21.77;;;11.60;;
59998;SDS011;45859;51.378;6.736;2022-12-07T01:41:10;11.67;;;7.90;;
59998;SDS011;45859;51.378;6.736;2022-12-07T01:43:35;18.23;;;10.20;;
59998;SDS011;45859;51.378;6.736;2022-12-07T01:46:02;17.10;;;9.00;;
59998;SDS011;45859;51.378;6.736;2022-12-07T01:48:33;20.67;;;10.53;;
59998;SDS011;45859;51.378;6.736;2022-12-07T01:51:04;23.37;;;11.27;;
59998;SDS011;45859;51.378;6.736;2022-12-07T01:56:00;21.87;;;11.13;;
59998;SDS011;45859;51.378;6.736;2022-12-07T01:58:27;25.23;;;12.40;;
59998;SDS011;45859;51.378;6.736;2022-12-07T02:00:53;23.07;;;12.10;;
59998;SDS011;45859;51.378;6.736;2022-12-07T02:03:22;25.97;;;12.60;;
59998;SDS011;45859;51.378;6.736;2022-12-07T02:05:52;23.90;;;11.67;;
59998;SDS011;45859;51.378;6.736;2022-12-07T02:08:19;26.40;;;12.10;;
59998;SDS011;45859;51.378;6.736;2022-12-07T02:10:45;23.63;;;11.57;;
59998;SDS011;45859;51.378;6.736;2022-12-07T02:13:19;18.67;;;10.47;;
59998;SDS011;45859;51.378;6.736;2022-12-07T02:21:02;15.27;;;8.87;;
59998;SDS011;45859;51.378;6.736;2022-12-07T02:23:41;20.90;;;10.80;;
59998;SDS011;45859;51.378;6.736;2022-12-07T02:26:50;16.03;;;8.03;;
59998;SDS011;45859;51.378;6.736;2022-12-07T02:29:46;8.07;;;5.03;;
59998;SDS011;45859;51.378;6.736;2022-12-07T02:34:56;29.50;;;13.63;;
59998;SDS011;45859;51.378;6.736;2022-12-07T02:42:36;16.57;;;9.60;;
59998;SDS011;45859;51.378;6.736;2022-12-07T02:45:06;18.37;;;10.40;;
59998;SDS011;45859;51.378;6.736;2022-12-07T02:47:33;25.33;;;12.60;;
59998;SDS011;45859;51.378;6.736;2022-12-07T02:50:05;20.17;;;11.17;;
59998;SDS011;45859;51.378;6.736;2022-12-07T02:52:31;25.05;;;11.52;;
59998;SDS011;45859;51.378;6.736;2022-12-07T02:54:57;23.17;;;12.43;;
59998;SDS011;45859;51.378;6.736;2022-12-07T02:57:34;27.60;;;12.43;;
59998;SDS011;45859;51.378;6.736;2022-12-07T03:00:17;27.13;;;11.80;;
59998;SDS011;45859;51.378;6.736;2022-12-07T03:08:22;24.50;;;10.70;;
59998;SDS011;45859;51.378;6.736;2022-12-07T03:10:58;23.40;;;12.20;;
59998;SDS011;45859;51.378;6.736;2022-12-07T03:13:31;29.00;;;13.27;;
59998;SDS011;45859;51.378;6.736;2022-12-07T03:18:44;18.80;;;10.77;;
59998;SDS011;45859;51.378;6.736;2022-12-07T03:21:14;22.20;;;11.67;;
59998;SDS011;45859;51.378;6.736;2022-12-07T03:23:44;26.50;;;12.47;;
59998;SDS011;45859;51.378;6.736;2022-12-07T03:26:13;15.70;;;9.57;;
59998;SDS011;45859;51.378;6.736;2022-12-07T03:28:44;24.60;;;12.10;;
59998;SDS011;45859;51.378;6.736;2022-12-07T03:31:33;23.83;;;12.03;;
59998;SDS011;45859;51.378;6.736;2022-12-07T03:34:10;21.85;;;12.02;;
59998;SDS011;45859;51.378;6.736;2022-12-07T03:36:52;23.33;;;11.47;;
59998;SDS011;45859;51.378;6.736;2022-12-07T03:39:39;24.87;;;11.50;;
59998;SDS011;45859;51.378;6.736;2022-12-07T03:42:09;24.30;;;13.07;;
59998;SDS011;45859;51.378;6.736;2022-12-07T03:44:38;21.83;;;11.67;;
59998;SDS011;45859;51.378;6.736;2022-12-07T03:49:45;24.67;;;13.43;;
59998;SDS011;45859;51.378;6.736;2022-12-07T03:57:41;23.57;;;12.10;;
59998;SDS011;45859;51.378;6.736;2022-12-07T04:00:10;18.17;;;9.20;;
59998;SDS011;45859;51.378;6.736;2022-12-07T04:02:36;22.60;;;13.33;;
59998;SDS011;45859;51.378;6.736;2022-12-07T04:05:03;24.23;;;12.57;;
59998;SDS011;45859;51.378;6.736;2022-12-07T04:07:30;16.23;;;8.10;;
59998;SDS011;45859;51.378;6.736;2022-12-07T04:09:55;21.30;;;10.30;;
59998;SDS011;45859;51.378;6.736;2022-12-07T04:12:21;19.83;;;10.37;;
59998;SDS011;45859;51.378;6.736;2022-12-07T04:14:47;28.57;;;13.17;;
59998;SDS011;45859;51.378;6.736;2022-12-07T04:17:13;19.23;;;10.90;;
59998;SDS011;45859;51.378;6.736;2022-12-07T04:19:39;20.33;;;10.07;;
59998;SDS011;45859;51.378;6.736;2022-12-07T04:22:06;21.17;;;9.87;;
59998;SDS011;45859;51.378;6.736;2022-12-07T04:24:32;17.20;;;9.80;;
59998;SDS011;45859;51.378;6.736;2022-12-07T04:26:59;25.70;;;12.73;;
59998;SDS011;45859;51.378;6.736;2022-12-07T04:29:25;21.03;;;11.37;;
59998;SDS011;45859;51.378;6.736;2022-12-07T04:31:51;29.47;;;11.77;;
59998;SDS011;45859;51.378;6.736;2022-12-07T04:34:18;16.17;;;9.57;;
59998;SDS011;45859;51.378;6.736;2022-12-07T04:36:45;17.53;;;10.67;;
59998;SDS011;45859;51.378;6.736;2022-12-07T04:39:28;22.23;;;11.53;;
59998;SDS011;45859;51.378;6.736;2022-12-07T04:41:55;22.93;;;9.77;;
59998;SDS011;45859;51.378;6.736;2022-12-07T04:44:22;27.27;;;12.40;;
59998;SDS011;45859;51.378;6.736;2022-12-07T04:46:49;23.07;;;11.03;;
59998;SDS011;45859;51.378;6.736;2022-12-07T04:49:15;21.83;;;10.33;;
59998;SDS011;45859;51.378;6.736;2022-12-07T04:51:42;18.43;;;10.27;;
59998;SDS011;45859;51.378;6.736;2022-12-07T04:54:08;27.40;;;11.57;;
59998;SDS011;45859;51.378;6.736;2022-12-07T04:56:34;14.80;;;7.70;;
59998;SDS011;45859;51.378;6.736;2022-12-07T04:59:00;28.50;;;11.77;;
59998;SDS011;45859;51.378;6.736;2022-12-07T05:01:26;25.33;;;11.40;;
59998;SDS011;45859;51.378;6.736;2022-12-07T05:03:52;19.50;;;10.17;;
59998;SDS011;45859;51.378;6.736;2022-12-07T05:06:18;23.73;;;12.27;;
59998;SDS011;45859;51.378;6.736;2022-12-07T05:08:44;17.53;;;8.57;;
59998;SDS011;45859;51.378;6.736;2022-12-07T05:11:11;19.50;;;10.73;;
59998;SDS011;45859;51.378;6.736;2022-12-07T05:14:01;25.47;;;11.70;;
59998;SDS011;45859;51.378;6.736;2022-12-07T05:16:28;23.23;;;11.20;;
59998;SDS011;45859;51.378;6.736;2022-12-07T05:18:54;17.63;;;9.87;;
59998;SDS011;45859;51.378;6.736;2022-12-07T05:21:20;24.57;;;10.23;;
59998;SDS011;45859;51.378;6.736;2022-12-07T05:23:46;17.87;;;10.33;;
59998;SDS011;45859;51.378;6.736;2022-12-07T05:26:11;20.10;;;10.47;;
59998;SDS011;45859;51.378;6.736;2022-12-07T05:28:37;17.73;;;9.70;;
59998;SDS011;45859;51.378;6.736;2022-12-07T05:31:03;16.93;;;9.80;;
59998;SDS011;45859;51.378;6.736;2022-12-07T05:33:29;15.43;;;8.40;;
59998;SDS011;45859;51.378;6.736;2022-12-07T05:35:54;22.93;;;11.23;;
59998;SDS011;45859;51.378;6.736;2022-12-07T05:38:20;23.37;;;9.60;;
59998;SDS011;45859;51.378;6.736;2022-12-07T05:40:46;14.87;;;8.67;;
59998;SDS011;45859;51.378;6.736;2022-12-07T05:43:11;18.80;;;9.83;;
59998;SDS011;45859;51.378;6.736;2022-12-07T05:45:37;17.30;;;8.03;;
59998;SDS011;45859;51.378;6.736;2022-12-07T05:48:03;21.30;;;10.07;;
59998;SDS011;45859;51.378;6.736;2022-12-07T05:50:28;15.57;;;8.80;;
59998;SDS011;45859;51.378;6.736;2022-12-07T05:52:54;18.47;;;9.77;;
59998;SDS011;45859;51.378;6.736;2022-12-07T05:55:20;18.13;;;8.23;;
59998;SDS011;45859;51.378;6.736;2022-12-07T05:57:46;13.83;;;7.00;;
59998;SDS011;45859;51.378;6.736;2022-12-07T06:00:30;19.47;;;8.57;;
59998;SDS011;45859;51.378;6.736;2022-12-07T06:02:55;17.03;;;8.90;;
59998;SDS011;45859;51.378;6.736;2022-12-07T06:05:21;21.20;;;9.73;;
59998;SDS011;45859;51.378;6.736;2022-12-07T06:07:47;18.27;;;9.00;;
59998;SDS011;45859;51.378;6.736;2022-12-07T06:10:13;22.33;;;10.07;;
59998;SDS011;45859;51.378;6.736;2022-12-07T06:12:38;15.73;;;7.00;;
59998;SDS011;45859;51.378;6.736;2022-12-07T06:15:07;21.13;;;8.87;;
59998;SDS011;45859;51.378;6.736;2022-12-07T06:17:34;15.80;;;8.13;;
59998;SDS011;45859;51.378;6.736;2022-12-07T06:20:00;15.00;;;8.40;;
59998;SDS011;45859;51.378;6.736;2022-12-07T06:22:26;16.00;;;7.20;;
59998;SDS011;45859;51.378;6.736;2022-12-07T06:24:51;21.80;;;8.30;;
59998;SDS011;45859;51.378;6.736;2022-12-07T06:27:17;25.63;;;9.23;;
59998;SDS011;45859;51.378;6.736;2022-12-07T06:29:43;24.53;;;9.47;;
59998;SDS011;45859;51.378;6.736;2022-12-07T06:32:09;18.37;;;9.23;;
59998;SDS011;45859;51.378;6.736;2022-12-07T06:34:34;14.73;;;7.67;;
59998;SDS011;45859;51.378;6.736;2022-12-07T06:37:00;15.87;;;8.17;;
59998;SDS011;45859;51.378;6.736;2022-12-07T06:39:26;19.13;;;8.47;;
59998;SDS011;45859;51.378;6.736;2022-12-07T06:41:53;14.10;;;6.53;;
59998;SDS011;45859;51.378;6.736;2022-12-07T06:44:19;18.37;;;9.23;;
59998;SDS011;45859;51.378;6.736;2022-12-07T06:46:46;22.00;;;8.77;;
59998;SDS011;45859;51.378;6.736;2022-12-07T06:49:12;18.67;;;8.53;;
59998;SDS011;45859;51.378;6.736;2022-12-07T06:51:38;17.73;;;7.97;;
59998;SDS011;45859;51.378;6.736;2022-12-07T06:54:07;7.57;;;4.60;;
59998;SDS011;45859;51.378;6.736;2022-12-07T06:56:33;15.80;;;7.17;;
59998;SDS011;45859;51.378;6.736;2022-12-07T06:58:59;16.73;;;7.53;;
59998;SDS011;45859;51.378;6.736;2022-12-07T07:01:24;14.03;;;7.53;;
59998;SDS011;45859;51.378;6.736;2022-12-07T07:03:50;13.73;;;7.37;;
59998;SDS011;45859;51.378;6.736;2022-12-07T07:06:17;15.83;;;7.70;;
59998;SDS011;45859;51.378;6.736;2022-12-07T07:08:42;20.13;;;7.00;;
59998;SDS011;45859;51.378;6.736;2022-12-07T07:11:08;21.17;;;8.33;;
59998;SDS011;45859;51.378;6.736;2022-12-07T07:13:34;17.43;;;7.50;;
59998;SDS011;45859;51.378;6.736;2022-12-07T07:16:00;16.13;;;7.40;;
59998;SDS011;45859;51.378;6.736;2022-12-07T07:18:26;15.57;;;7.87;;
59998;SDS011;45859;51.378;6.736;2022-12-07T07:20:52;17.83;;;7.37;;
59998;SDS011;45859;51.378;6.736;2022-12-07T07:23:19;15.13;;;7.33;;
59998;SDS011;45859;51.378;6.736;2022-12-07T07:25:46;18.20;;;6.50;;
59998;SDS011;45859;51.378;6.736;2022-12-07T07:28:12;12.97;;;7.47;;
59998;SDS011;45859;51.378;6.736;2022-12-07T07:30:38;17.53;;;7.80;;
59998;SDS011;45859;51.378;6.736;2022-12-07T07:33:04;19.27;;;8.07;;
59998;SDS011;45859;51.378;6.736;2022-12-07T07:35:31;18.83;;;6.93;;
59998;SDS011;45859;51.378;6.736;2022-12-07T07:37:58;15.23;;;7.10;;
59998;SDS011;45859;51.378;6.736;2022-12-07T07:40:24;11.93;;;7.17;;
59998;SDS011;45859;51.378;6.736;2022-12-07T07:42:51;13.47;;;7.40;;
59998;SDS011;45859;51.378;6.736;2022-12-07T07:45:18;10.80;;;6.00;;
59998;SDS011;45859;51.378;6.736;2022-12-07T07:47:46;9.63;;;5.67;;
59998;SDS011;45859;51.378;6.736;2022-12-07T07:50:12;10.43;;;6.90;;
59998;SDS011;45859;51.378;6.736;2022-12-07T07:52:38;10.90;;;5.10;;
59998;SDS011;45859;51.378;6.736;2022-12-07T07:55:03;13.53;;;6.60;;
59998;SDS011;45859;51.378;6.736;2022-12-07T07:57:30;14.83;;;5.57;;
59998;SDS011;45859;51.378;6.736;2022-12-07T07:59:55;10.57;;;6.07;;
59998;SDS011;45859;51.378;6.736;2022-12-07T08:02:21;20.20;;;7.03;;
59998;SDS011;45859;51.378;6.736;2022-12-07T08:04:48;11.30;;;6.40;;
59998;SDS011;45859;51.378;6.736;2022-12-07T08:07:14;11.73;;;6.07;;
59998;SDS011;45859;51.378;6.736;2022-12-07T08:09:40;4.47;;;3.07;;
59998;SDS011;45859;51.378;6.736;2022-12-07T08:12:07;8.97;;;4.60;;
59998;SDS011;45859;51.378;6.736;2022-12-07T08:14:33;12.37;;;5.37;;
59998;SDS011;45859;51.378;6.736;2022-12-07T08:16:59;10.90;;;6.33;;
59998;SDS011;45859;51.378;6.736;2022-12-07T08:19:25;9.27;;;4.07;;
59998;SDS011;45859;51.378;6.736;2022-12-07T08:21:51;9.50;;;5.63;;
59998;SDS011;45859;51.378;6.736;2022-12-07T08:24:16;19.33;;;6.50;;
59998;SDS011;45859;51.378;6.736;2022-12-07T08:26:43;15.27;;;5.43;;
59998;SDS011;45859;51.378;6.736;2022-12-07T08:29:08;12.17;;;6.80;;
59998;SDS011;45859;51.378;6.736;2022-12-07T08:31:34;12.90;;;6.50;;
59998;SDS011;45859;51.378;6.736;2022-12-07T08:34:00;13.60;;;6.40;;
59998;SDS011;45859;51.378;6.736;2022-12-07T08:36:26;13.17;;;5.80;;
59998;SDS011;45859;51.378;6.736;2022-12-07T08:38:52;21.37;;;7.27;;
59998;SDS011;45859;51.378;6.736;2022-12-07T08:41:17;14.00;;;7.07;;
59998;SDS011;45859;51.378;6.736;2022-12-07T08:43:43;12.87;;;6.00;;
59998;SDS011;45859;51.378;6.736;2022-12-07T08:48:36;15.10;;;7.57;;
59998;SDS011;45859;51.378;6.736;2022-12-07T08:51:11;16.97;;;7.07;;
59998;SDS011;45859;51.378;6.736;2022-12-07T08:53:38;11.43;;;5.77;;
59998;SDS011;45859;51.378;6.736;2022-12-07T08:56:06;19.70;;;7.63;;
59998;SDS011;45859;51.378;6.736;2022-12-07T08:58:32;15.23;;;7.30;;
59998;SDS011;45859;51.378;6.736;2022-12-07T09:01:00;15.03;;;6.13;;
59998;SDS011;45859;51.378;6.736;2022-12-07T09:03:25;13.67;;;7.10;;
59998;SDS011;45859;51.378;6.736;2022-12-07T09:05:52;13.33;;;7.27;;
59998;SDS011;45859;51.378;6.736;2022-12-07T09:08:18;13.87;;;5.87;;
59998;SDS011;45859;51.378;6.736;2022-12-07T09:10:45;10.97;;;5.33;;
59998;SDS011;45859;51.378;6.736;2022-12-07T09:13:12;8.50;;;3.40;;
59998;SDS011;45859;51.378;6.736;2022-12-07T09:15:38;13.23;;;5.23;;
59998;SDS011;45859;51.378;6.736;2022-12-07T09:18:04;7.70;;;3.83;;
59998;SDS011;45859;51.378;6.736;2022-12-07T09:20:30;11.87;;;5.73;;
59998;SDS011;45859;51.378;6.736;2022-12-07T09:22:56;12.93;;;6.17;;
59998;SDS011;45859;51.378;6.736;2022-12-07T09:25:21;14.43;;;5.43;;
59998;SDS011;45859;51.378;6.736;2022-12-07T09:27:47;10.87;;;4.90;;
59998;SDS011;45859;51.378;6.736;2022-12-07T09:30:13;8.30;;;5.33;;
59998;SDS011;45859;51.378;6.736;2022-12-07T09:32:39;8.53;;;3.67;;
59998;SDS011;45859;51.378;6.736;2022-12-07T09:35:04;9.23;;;3.80;;
59998;SDS011;45859;51.378;6.736;2022-12-07T09:37:30;10.97;;;4.50;;
59998;SDS011;45859;51.378;6.736;2022-12-07T09:40:00;13.37;;;5.97;;
59998;SDS011;45859;51.378;6.736;2022-12-07T09:44:54;8.17;;;3.30;;
59998;SDS011;45859;51.378;6.736;2022-12-07T09:47:21;4.63;;;3.37;;
59998;SDS011;45859;51.378;6.736;2022-12-07T09:49:47;9.40;;;4.30;;
59998;SDS011;45859;51.378;6.736;2022-12-07T09:54:51;12.40;;;4.57;;
59998;SDS011;45859;51.378;6.736;2022-12-07T09:57:18;8.33;;;4.20;;
59998;SDS011;45859;51.378;6.736;2022-12-07T09:59:59;10.13;;;4.77;;
59998;SDS011;45859;51.378;6.736;2022-12-07T10:05:09;5.40;;;3.93;;
59998;SDS011;45859;51.378;6.736;2022-12-07T10:07:38;10.53;;;4.53;;
59998;SDS011;45859;51.378;6.736;2022-12-07T10:10:06;7.50;;;4.40;;
59998;SDS011;45859;51.378;6.736;2022-12-07T10:13:13;9.40;;;4.50;;
59998;SDS011;45859;51.378;6.736;2022-12-07T10:18:25;8.35;;;4.22;;
59998;SDS011;45859;51.378;6.736;2022-12-07T10:21:02;7.87;;;3.70;;
59998;SDS011;45859;51.378;6.736;2022-12-07T10:23:32;7.83;;;3.93;;
59998;SDS011;45859;51.378;6.736;2022-12-07T10:25:59;5.67;;;2.83;;
59998;SDS011;45859;51.378;6.736;2022-12-07T10:28:38;9.43;;;3.90;;
59998;SDS011;45859;51.378;6.736;2022-12-07T10:31:15;12.63;;;5.63;;
59998;SDS011;45859;51.378;6.736;2022-12-07T10:33:53;9.63;;;4.80;;
59998;SDS011;45859;51.378;6.736;2022-12-07T10:36:25;9.40;;;3.97;;
59998;SDS011;45859;51.378;6.736;2022-12-07T10:44:26;10.20;;;5.90;;
59998;SDS011;45859;51.378;6.736;2022-12-07T10:52:21;11.03;;;5.50;;
59998;SDS011;45859;51.378;6.736;2022-12-07T10:55:08;12.30;;;5.73;;
59998;SDS011;45859;51.378;6.736;2022-12-07T11:00:25;7.13;;;4.17;;
59998;SDS011;45859;51.378;6.736;2022-12-07T11:03:42;9.60;;;5.13;;
59998;SDS011;45859;51.378;6.736;2022-12-07T11:17:19;5.43;;;3.00;;
59998;SDS011;45859;51.378;6.736;2022-12-07T11:20:02;5.57;;;2.70;;
59998;SDS011;45859;51.378;6.736;2022-12-07T11:22:44;5.00;;;2.60;;
59998;SDS011;45859;51.378;6.736;2022-12-07T11:25:32;6.27;;;2.40;;
59998;SDS011;45859;51.378;6.736;2022-12-07T11:28:41;3.93;;;2.03;;
59998;SDS011;45859;51.378;6.736;2022-12-07T11:34:03;5.13;;;2.63;;
59998;SDS011;45859;51.378;6.736;2022-12-07T11:36:45;8.77;;;2.43;;
59998;SDS011;45859;51.378;6.736;2022-12-07T11:41:57;5.03;;;2.27;;
59998;SDS011;45859;51.378;6.736;2022-12-07T11:45:14;5.50;;;3.37;;
59998;SDS011;45859;51.378;6.736;2022-12-07T11:52:44;3.33;;;1.60;;
59998;SDS011;45859;51.378;6.736;2022-12-07T11:55:23;3.95;;;1.63;;
59998;SDS011;45859;51.378;6.736;2022-12-07T11:58:11;5.37;;;2.83;;
59998;SDS011;45859;51.378;6.736;2022-12-07T12:01:08;5.80;;;2.47;;
59998;SDS011;45859;51.378;6.736;2022-12-07T12:03:38;5.57;;;2.60;;
59998;SDS011;45859;51.378;6.736;2022-12-07T12:06:09;2.97;;;1.53;;
59998;SDS011;45859;51.378;6.736;2022-12-07T12:08:50;6.87;;;2.33;;
59998;SDS011;45859;51.378;6.736;2022-12-07T12:11:44;4.63;;;2.07;;
59998;SDS011;45859;51.378;6.736;2022-12-07T12:14:28;4.23;;;2.10;;
59998;SDS011;45859;51.378;6.736;2022-12-07T12:20:15;5.60;;;1.57;;
59998;SDS011;45859;51.378;6.736;2022-12-07T12:22:49;7.07;;;2.43;;
59998;SDS011;45859;51.378;6.736;2022-12-07T12:28:01;5.07;;;1.80;;
59998;SDS011;45859;51.378;6.736;2022-12-07T12:33:03;9.10;;;1.70;;
59998;SDS011;45859;51.378;6.736;2022-12-07T12:35:42;1.83;;;1.13;;
59998;SDS011;45859;51.378;6.736;2022-12-07T12:38:25;3.20;;;2.33;;
59998;SDS011;45859;51.378;6.736;2022-12-07T12:47:04;4.73;;;0.90;;
59998;SDS011;45859;51.378;6.736;2022-12-07T12:57:32;7.47;;;1.53;;
59998;SDS011;45859;51.378;6.736;2022-12-07T12:59:58;5.00;;;1.67;;
59998;SDS011;45859;51.378;6.736;2022-12-07T13:02:29;4.55;;;1.65;;
59998;SDS011;45859;51.378;6.736;2022-12-07T13:15:43;5.17;;;2.10;;
59998;SDS011;45859;51.378;6.736;2022-12-07T13:23:39;6.53;;;2.17;;
59998;SDS011;45859;51.378;6.736;2022-12-07T13:28:47;8.60;;;2.73;;
59998;SDS011;45859;51.378;6.736;2022-12-07T13:33:46;6.33;;;2.60;;
59998;SDS011;45859;51.378;6.736;2022-12-07T13:38:49;5.57;;;2.83;;
59998;SDS011;45859;51.378;6.736;2022-12-07T13:41:20;5.90;;;2.60;;
59998;SDS011;45859;51.378;6.736;2022-12-07T13:43:50;7.33;;;2.83;;
59998;SDS011;45859;51.378;6.736;2022-12-07T13:46:18;5.40;;;2.23;;
59998;SDS011;45859;51.378;6.736;2022-12-07T13:48:49;11.27;;;2.27;;
59998;SDS011;45859;51.378;6.736;2022-12-07T13:53:54;5.43;;;2.07;;
59998;SDS011;45859;51.378;6.736;2022-12-07T13:56:26;6.30;;;2.23;;
59998;SDS011;45859;51.378;6.736;2022-12-07T13:58:57;4.27;;;1.37;;
59998;SDS011;45859;51.378;6.736;2022-12-07T14:01:24;3.20;;;1.80;;
59998;SDS011;45859;51.378;6.736;2022-12-07T14:03:50;3.00;;;1.60;;
59998;SDS011;45859;51.378;6.736;2022-12-07T14:06:23;4.27;;;1.37;;
59998;SDS011;45859;51.378;6.736;2022-12-07T14:11:40;2.47;;;1.30;;
59998;SDS011;45859;51.378;6.736;2022-12-07T14:14:06;3.10;;;1.43;;
59998;SDS011;45859;51.378;6.736;2022-12-07T14:16:40;5.17;;;1.93;;
59998;SDS011;45859;51.378;6.736;2022-12-07T14:22:08;5.97;;;1.30;;
59998;SDS011;45859;51.378;6.736;2022-12-07T14:24:42;2.83;;;1.23;;
59998;SDS011;45859;51.378;6.736;2022-12-07T14:27:19;6.13;;;1.70;;
59998;SDS011;45859;51.378;6.736;2022-12-07T14:29:47;3.90;;;1.20;;
59998;SDS011;45859;51.378;6.736;2022-12-07T14:35:07;9.13;;;1.63;;
59998;SDS011;45859;51.378;6.736;2022-12-07T14:37:36;6.40;;;1.83;;
59998;SDS011;45859;51.378;6.736;2022-12-07T14:40:03;6.53;;;2.53;;
59998;SDS011;45859;51.378;6.736;2022-12-07T14:42:29;5.10;;;2.20;;
59998;SDS011;45859;51.378;6.736;2022-12-07T14:44:57;7.23;;;2.37;;
59998;SDS011;45859;51.378;6.736;2022-12-07T14:47:24;4.00;;;2.00;;
59998;SDS011;45859;51.378;6.736;2022-12-07T14:49:51;6.50;;;2.97;;
59998;SDS011;45859;51.378;6.736;2022-12-07T14:52:22;7.53;;;3.30;;
59998;SDS011;45859;51.378;6.736;2022-12-07T14:54:51;10.20;;;3.87;;
59998;SDS011;45859;51.378;6.736;2022-12-07T14:57:17;5.07;;;3.03;;
59998;SDS011;45859;51.378;6.736;2022-12-07T14:59:43;7.10;;;3.60;;
59998;SDS011;45859;51.378;6.736;2022-12-07T15:02:10;6.20;;;2.37;;
59998;SDS011;45859;51.378;6.736;2022-12-07T15:04:37;7.73;;;2.77;;
59998;SDS011;45859;51.378;6.736;2022-12-07T15:07:04;5.77;;;2.90;;
59998;SDS011;45859;51.378;6.736;2022-12-07T15:09:31;10.57;;;2.97;;
59998;SDS011;45859;51.378;6.736;2022-12-07T15:11:57;7.57;;;2.80;;
59998;SDS011;45859;51.378;6.736;2022-12-07T15:14:23;8.33;;;3.10;;
59998;SDS011;45859;51.378;6.736;2022-12-07T15:16:49;7.47;;;2.70;;
59998;SDS011;45859;51.378;6.736;2022-12-07T15:19:16;6.03;;;3.30;;
59998;SDS011;45859;51.378;6.736;2022-12-07T15:21:44;5.63;;;2.87;;
59998;SDS011;45859;51.378;6.736;2022-12-07T15:24:10;6.43;;;3.00;;
59998;SDS011;45859;51.378;6.736;2022-12-07T15:26:37;8.27;;;3.53;;
59998;SDS011;45859;51.378;6.736;2022-12-07T15:29:07;6.93;;;3.70;;
59998;SDS011;45859;51.378;6.736;2022-12-07T15:31:34;10.93;;;3.92;;
59998;SDS011;45859;51.378;6.736;2022-12-07T15:34:00;13.60;;;4.43;;
59998;SDS011;45859;51.378;6.736;2022-12-07T15:36:27;8.97;;;3.83;;
59998;SDS011;45859;51.378;6.736;2022-12-07T15:38:55;11.40;;;3.77;;
59998;SDS011;45859;51.378;6.736;2022-12-07T15:41:21;10.17;;;4.50;;
59998;SDS011;45859;51.378;6.736;2022-12-07T15:43:48;7.53;;;3.33;;
59998;SDS011;45859;51.378;6.736;2022-12-07T15:46:33;6.33;;;3.57;;
59998;SDS011;45859;51.378;6.736;2022-12-07T15:49:00;6.50;;;3.13;;
59998;SDS011;45859;51.378;6.736;2022-12-07T15:51:27;5.07;;;3.27;;
59998;SDS011;45859;51.378;6.736;2022-12-07T15:53:52;5.60;;;3.10;;
59998;SDS011;45859;51.378;6.736;2022-12-07T15:56:18;9.23;;;3.03;;
59998;SDS011;45859;51.378;6.736;2022-12-07T15:58:44;9.30;;;3.70;;
59998;SDS011;45859;51.378;6.736;2022-12-07T16:01:15;11.17;;;3.30;;
59998;SDS011;45859;51.378;6.736;2022-12-07T16:03:42;7.03;;;3.37;;
59998;SDS011;45859;51.378;6.736;2022-12-07T16:06:09;6.87;;;2.93;;
59998;SDS011;45859;51.378;6.736;2022-12-07T16:08:35;9.97;;;3.10;;
59998;SDS011;45859;51.378;6.736;2022-12-07T16:11:05;3.97;;;2.40;;
59998;SDS011;45859;51.378;6.736;2022-12-07T16:13:31;9.25;;;2.88;;
59998;SDS011;45859;51.378;6.736;2022-12-07T16:15:57;5.03;;;2.70;;
59998;SDS011;45859;51.378;6.736;2022-12-07T16:18:23;4.23;;;2.50;;
59998;SDS011;45859;51.378;6.736;2022-12-07T16:20:50;6.40;;;2.83;;
59998;SDS011;45859;51.378;6.736;2022-12-07T16:23:16;3.67;;;1.80;;
59998;SDS011;45859;51.378;6.736;2022-12-07T16:25:41;10.10;;;2.97;;
59998;SDS011;45859;51.378;6.736;2022-12-07T16:28:07;9.10;;;3.03;;
59998;SDS011;45859;51.378;6.736;2022-12-07T16:30:33;4.63;;;2.83;;
59998;SDS011;45859;51.378;6.736;2022-12-07T16:32:59;7.47;;;2.77;;
59998;SDS011;45859;51.378;6.736;2022-12-07T16:35:24;9.33;;;2.87;;
59998;SDS011;45859;51.378;6.736;2022-12-07T16:37:50;8.80;;;3.50;;
59998;SDS011;45859;51.378;6.736;2022-12-07T16:40:16;10.10;;;3.37;;
59998;SDS011;45859;51.378;6.736;2022-12-07T16:42:42;6.80;;;3.80;;
59998;SDS011;45859;51.378;6.736;2022-12-07T16:45:08;7.70;;;3.67;;
59998;SDS011;45859;51.378;6.736;2022-12-07T16:47:36;16.73;;;4.33;;
59998;SDS011;45859;51.378;6.736;2022-12-07T16:50:02;10.40;;;3.93;;
59998;SDS011;45859;51.378;6.736;2022-12-07T16:52:29;9.97;;;3.57;;
59998;SDS011;45859;51.378;6.736;2022-12-07T16:54:55;8.70;;;4.53;;
59998;SDS011;45859;51.378;6.736;2022-12-07T16:57:20;9.63;;;3.13;;
59998;SDS011;45859;51.378;6.736;2022-12-07T16:59:46;4.77;;;2.77;;
59998;SDS011;45859;51.378;6.736;2022-12-07T17:02:12;6.40;;;3.00;;
59998;SDS011;45859;51.378;6.736;2022-12-07T17:04:38;9.80;;;4.43;;
59998;SDS011;45859;51.378;6.736;2022-12-07T17:07:08;8.47;;;3.73;;